Terminal Aerodrome Forecast
Issued by NWS Des Moines, IA

Home | Current Version | Previous Version | Text Only | Print | Product List | Glossary On
Versions: 1 2 3 4 5 6 7 8 9 10 11 12 13 14 15 16 17 18 19 20 21 22 23 24 25 26 27 28 29 30 31 32 33 34
491
FTUS43 KDMX 131134
TAFDSM
TAF
KDSM 131134Z 1312/1412 VRB04KT P6SM BKN120 OVC150
     FM131600 11004KT P6SM BKN080 BKN110
     FM132000 13006KT P6SM VCSH BKN060
     FM140100 14011G16KT 5SM -SN BKN020 BKN035
     FM140400 14012G18KT 2SM -SN BKN013 OVC018
     FM140700 13014G22KT 3SM -SN SCT014 BKN020=

USA.gov is the U.S. government's official web portal to all federal, state and local government web resources and services.